sensor_id;sensor_type;location;lat;lon;timestamp;P1;durP1;ratioP1;P2;durP2;ratioP2
21564;SDS011;10943;48.738;9.320;2022-12-18T00:01:26;89.05;;;38.13;;
21564;SDS011;10943;48.738;9.320;2022-12-18T00:04:04;87.95;;;38.05;;
21564;SDS011;10943;48.738;9.320;2022-12-18T00:06:40;90.20;;;36.58;;
21564;SDS011;10943;48.738;9.320;2022-12-18T00:09:08;92.72;;;38.33;;
21564;SDS011;10943;48.738;9.320;2022-12-18T00:11:36;86.20;;;40.38;;
21564;SDS011;10943;48.738;9.320;2022-12-18T00:14:03;107.47;;;44.13;;
21564;SDS011;10943;48.738;9.320;2022-12-18T00:16:31;93.40;;;40.88;;
21564;SDS011;10943;48.738;9.320;2022-12-18T00:19:02;100.53;;;42.03;;
21564;SDS011;10943;48.738;9.320;2022-12-18T00:21:31;98.63;;;42.20;;
21564;SDS011;10943;48.738;9.320;2022-12-18T00:24:00;96.57;;;43.22;;
21564;SDS011;10943;48.738;9.320;2022-12-18T00:26:29;97.05;;;41.08;;
21564;SDS011;10943;48.738;9.320;2022-12-18T00:29:02;97.57;;;41.33;;
21564;SDS011;10943;48.738;9.320;2022-12-18T00:31:42;96.50;;;41.92;;
21564;SDS011;10943;48.738;9.320;2022-12-18T00:34:11;90.32;;;39.38;;
21564;SDS011;10943;48.738;9.320;2022-12-18T00:36:40;97.80;;;38.85;;
21564;SDS011;10943;48.738;9.320;2022-12-18T00:39:09;95.82;;;40.90;;
21564;SDS011;10943;48.738;9.320;2022-12-18T00:41:39;97.45;;;39.38;;
21564;SDS011;10943;48.738;9.320;2022-12-18T00:44:25;98.68;;;39.28;;
21564;SDS011;10943;48.738;9.320;2022-12-18T00:46:53;98.50;;;40.08;;
21564;SDS011;10943;48.738;9.320;2022-12-18T00:49:20;94.90;;;40.13;;
21564;SDS011;10943;48.738;9.320;2022-12-18T00:51:48;103.97;;;39.40;;
21564;SDS011;10943;48.738;9.320;2022-12-18T00:54:17;93.45;;;40.35;;
21564;SDS011;10943;48.738;9.320;2022-12-18T00:56:45;95.20;;;37.83;;
21564;SDS011;10943;48.738;9.320;2022-12-18T00:59:21;91.47;;;38.50;;
21564;SDS011;10943;48.738;9.320;2022-12-18T01:01:49;95.47;;;37.47;;
21564;SDS011;10943;48.738;9.320;2022-12-18T01:04:19;102.65;;;40.45;;
21564;SDS011;10943;48.738;9.320;2022-12-18T01:06:47;92.30;;;37.33;;
21564;SDS011;10943;48.738;9.320;2022-12-18T01:09:15;93.35;;;36.58;;
21564;SDS011;10943;48.738;9.320;2022-12-18T01:11:42;90.95;;;36.83;;
21564;SDS011;10943;48.738;9.320;2022-12-18T01:14:10;88.97;;;34.95;;
21564;SDS011;10943;48.738;9.320;2022-12-18T01:16:38;92.05;;;35.30;;
21564;SDS011;10943;48.738;9.320;2022-12-18T01:19:06;89.50;;;39.13;;
21564;SDS011;10943;48.738;9.320;2022-12-18T01:21:33;93.55;;;38.97;;
21564;SDS011;10943;48.738;9.320;2022-12-18T01:24:03;92.10;;;41.53;;
21564;SDS011;10943;48.738;9.320;2022-12-18T01:26:36;87.00;;;40.85;;
21564;SDS011;10943;48.738;9.320;2022-12-18T01:29:04;82.07;;;36.28;;
21564;SDS011;10943;48.738;9.320;2022-12-18T01:31:36;80.53;;;36.03;;
21564;SDS011;10943;48.738;9.320;2022-12-18T01:34:04;87.85;;;38.88;;
21564;SDS011;10943;48.738;9.320;2022-12-18T01:36:34;81.18;;;36.33;;
21564;SDS011;10943;48.738;9.320;2022-12-18T01:39:15;80.00;;;37.90;;
21564;SDS011;10943;48.738;9.320;2022-12-18T01:41:42;80.88;;;37.75;;
21564;SDS011;10943;48.738;9.320;2022-12-18T01:50:18;83.55;;;38.83;;
21564;SDS011;10943;48.738;9.320;2022-12-18T01:53:15;81.53;;;37.30;;
21564;SDS011;10943;48.738;9.320;2022-12-18T01:55:50;75.60;;;33.38;;
21564;SDS011;10943;48.738;9.320;2022-12-18T01:58:24;80.55;;;36.97;;
21564;SDS011;10943;48.738;9.320;2022-12-18T02:01:09;77.72;;;36.60;;
21564;SDS011;10943;48.738;9.320;2022-12-18T02:03:37;73.13;;;33.78;;
21564;SDS011;10943;48.738;9.320;2022-12-18T02:06:16;81.20;;;37.17;;
21564;SDS011;10943;48.738;9.320;2022-12-18T02:14:45;70.68;;;32.17;;
21564;SDS011;10943;48.738;9.320;2022-12-18T02:17:36;76.80;;;34.85;;
21564;SDS011;10943;48.738;9.320;2022-12-18T02:20:28;80.50;;;35.60;;
21564;SDS011;10943;48.738;9.320;2022-12-18T02:31:38;80.55;;;36.60;;
21564;SDS011;10943;48.738;9.320;2022-12-18T02:34:14;90.53;;;39.55;;
21564;SDS011;10943;48.738;9.320;2022-12-18T02:36:46;81.72;;;36.13;;
21564;SDS011;10943;48.738;9.320;2022-12-18T02:39:16;87.93;;;37.28;;
21564;SDS011;10943;48.738;9.320;2022-12-18T02:41:56;82.72;;;35.53;;
21564;SDS011;10943;48.738;9.320;2022-12-18T02:44:26;87.45;;;38.20;;
21564;SDS011;10943;48.738;9.320;2022-12-18T02:46:54;84.65;;;39.25;;
21564;SDS011;10943;48.738;9.320;2022-12-18T03:05:20;72.28;;;35.33;;
21564;SDS011;10943;48.738;9.320;2022-12-18T03:08:02;79.00;;;35.85;;
21564;SDS011;10943;48.738;9.320;2022-12-18T03:10:53;78.93;;;35.25;;
21564;SDS011;10943;48.738;9.320;2022-12-18T03:13:33;75.78;;;36.70;;
21564;SDS011;10943;48.738;9.320;2022-12-18T03:16:24;74.57;;;35.08;;
21564;SDS011;10943;48.738;9.320;2022-12-18T03:18:58;76.28;;;36.17;;
21564;SDS011;10943;48.738;9.320;2022-12-18T03:21:45;77.57;;;36.10;;
21564;SDS011;10943;48.738;9.320;2022-12-18T03:24:18;78.43;;;36.20;;
21564;SDS011;10943;48.738;9.320;2022-12-18T03:26:50;75.95;;;35.47;;
21564;SDS011;10943;48.738;9.320;2022-12-18T03:29:33;75.05;;;35.97;;
21564;SDS011;10943;48.738;9.320;2022-12-18T03:32:19;82.80;;;37.40;;
21564;SDS011;10943;48.738;9.320;2022-12-18T03:34:59;76.97;;;35.38;;
21564;SDS011;10943;48.738;9.320;2022-12-18T03:37:35;85.40;;;35.88;;
21564;SDS011;10943;48.738;9.320;2022-12-18T03:40:04;78.22;;;35.75;;
21564;SDS011;10943;48.738;9.320;2022-12-18T03:45:24;74.90;;;33.92;;
21564;SDS011;10943;48.738;9.320;2022-12-18T03:51:26;69.63;;;33.35;;
21564;SDS011;10943;48.738;9.320;2022-12-18T03:54:44;73.80;;;32.80;;
21564;SDS011;10943;48.738;9.320;2022-12-18T03:57:23;71.47;;;32.67;;
21564;SDS011;10943;48.738;9.320;2022-12-18T03:59:57;67.43;;;33.47;;
21564;SDS011;10943;48.738;9.320;2022-12-18T04:02:52;68.28;;;32.47;;
21564;SDS011;10943;48.738;9.320;2022-12-18T04:05:32;69.38;;;32.35;;
21564;SDS011;10943;48.738;9.320;2022-12-18T04:08:02;72.30;;;32.55;;
21564;SDS011;10943;48.738;9.320;2022-12-18T04:10:35;73.32;;;33.92;;
21564;SDS011;10943;48.738;9.320;2022-12-18T04:13:03;73.13;;;33.35;;
21564;SDS011;10943;48.738;9.320;2022-12-18T04:15:31;65.35;;;30.83;;
21564;SDS011;10943;48.738;9.320;2022-12-18T04:18:07;71.60;;;32.30;;
21564;SDS011;10943;48.738;9.320;2022-12-18T04:20:39;71.22;;;32.78;;
21564;SDS011;10943;48.738;9.320;2022-12-18T04:23:07;66.45;;;32.28;;
21564;SDS011;10943;48.738;9.320;2022-12-18T04:25:37;71.50;;;32.17;;
21564;SDS011;10943;48.738;9.320;2022-12-18T04:28:15;70.22;;;30.88;;
21564;SDS011;10943;48.738;9.320;2022-12-18T04:30:43;66.45;;;31.08;;
21564;SDS011;10943;48.738;9.320;2022-12-18T04:33:13;64.63;;;29.95;;
21564;SDS011;10943;48.738;9.320;2022-12-18T04:35:44;63.75;;;31.30;;
21564;SDS011;10943;48.738;9.320;2022-12-18T04:38:12;64.18;;;30.40;;
21564;SDS011;10943;48.738;9.320;2022-12-18T04:40:40;62.08;;;31.08;;
21564;SDS011;10943;48.738;9.320;2022-12-18T04:43:16;68.03;;;30.33;;
21564;SDS011;10943;48.738;9.320;2022-12-18T04:45:44;67.05;;;31.55;;
21564;SDS011;10943;48.738;9.320;2022-12-18T04:48:11;64.85;;;29.48;;
21564;SDS011;10943;48.738;9.320;2022-12-18T04:50:39;59.95;;;29.25;;
21564;SDS011;10943;48.738;9.320;2022-12-18T04:53:06;67.40;;;29.50;;
21564;SDS011;10943;48.738;9.320;2022-12-18T04:55:38;59.40;;;28.25;;
21564;SDS011;10943;48.738;9.320;2022-12-18T04:58:05;58.50;;;28.65;;
21564;SDS011;10943;48.738;9.320;2022-12-18T05:00:33;59.97;;;28.48;;
21564;SDS011;10943;48.738;9.320;2022-12-18T05:03:01;60.40;;;28.10;;
21564;SDS011;10943;48.738;9.320;2022-12-18T05:05:29;61.47;;;29.65;;
21564;SDS011;10943;48.738;9.320;2022-12-18T05:07:57;54.50;;;27.65;;
21564;SDS011;10943;48.738;9.320;2022-12-18T05:10:24;55.47;;;27.17;;
21564;SDS011;10943;48.738;9.320;2022-12-18T05:12:52;53.03;;;27.67;;
21564;SDS011;10943;48.738;9.320;2022-12-18T05:15:30;55.67;;;26.55;;
21564;SDS011;10943;48.738;9.320;2022-12-18T05:17:59;54.08;;;26.15;;
21564;SDS011;10943;48.738;9.320;2022-12-18T05:20:29;54.92;;;26.75;;
21564;SDS011;10943;48.738;9.320;2022-12-18T05:22:57;58.58;;;27.35;;
21564;SDS011;10943;48.738;9.320;2022-12-18T05:25:24;61.03;;;27.77;;
21564;SDS011;10943;48.738;9.320;2022-12-18T05:27:52;58.75;;;28.30;;
21564;SDS011;10943;48.738;9.320;2022-12-18T05:30:20;58.92;;;27.92;;
21564;SDS011;10943;48.738;9.320;2022-12-18T05:32:49;57.33;;;26.42;;
21564;SDS011;10943;48.738;9.320;2022-12-18T05:35:16;59.72;;;27.58;;
21564;SDS011;10943;48.738;9.320;2022-12-18T05:37:45;62.80;;;29.17;;
21564;SDS011;10943;48.738;9.320;2022-12-18T05:40:13;59.65;;;28.67;;
21564;SDS011;10943;48.738;9.320;2022-12-18T05:42:40;55.13;;;27.63;;
21564;SDS011;10943;48.738;9.320;2022-12-18T05:45:08;55.65;;;26.73;;
21564;SDS011;10943;48.738;9.320;2022-12-18T05:47:36;57.30;;;27.00;;
21564;SDS011;10943;48.738;9.320;2022-12-18T05:50:04;55.33;;;26.92;;
21564;SDS011;10943;48.738;9.320;2022-12-18T05:52:33;54.95;;;26.98;;
21564;SDS011;10943;48.738;9.320;2022-12-18T05:55:01;54.65;;;27.33;;
21564;SDS011;10943;48.738;9.320;2022-12-18T05:57:29;58.40;;;27.42;;
21564;SDS011;10943;48.738;9.320;2022-12-18T05:59:56;55.83;;;27.63;;
21564;SDS011;10943;48.738;9.320;2022-12-18T06:02:24;52.55;;;26.33;;
21564;SDS011;10943;48.738;9.320;2022-12-18T06:04:52;51.63;;;26.52;;
21564;SDS011;10943;48.738;9.320;2022-12-18T06:07:19;51.55;;;27.00;;
21564;SDS011;10943;48.738;9.320;2022-12-18T06:09:47;53.85;;;27.58;;
21564;SDS011;10943;48.738;9.320;2022-12-18T06:12:17;57.30;;;26.58;;
21564;SDS011;10943;48.738;9.320;2022-12-18T06:14:44;60.65;;;28.08;;
21564;SDS011;10943;48.738;9.320;2022-12-18T06:17:12;55.35;;;27.65;;
21564;SDS011;10943;48.738;9.320;2022-12-18T06:19:39;59.53;;;28.35;;
21564;SDS011;10943;48.738;9.320;2022-12-18T06:22:06;59.22;;;27.17;;
21564;SDS011;10943;48.738;9.320;2022-12-18T06:24:34;59.25;;;27.90;;
21564;SDS011;10943;48.738;9.320;2022-12-18T06:27:01;58.17;;;26.92;;
21564;SDS011;10943;48.738;9.320;2022-12-18T06:29:28;63.08;;;28.63;;
21564;SDS011;10943;48.738;9.320;2022-12-18T06:31:56;60.35;;;27.83;;
21564;SDS011;10943;48.738;9.320;2022-12-18T06:34:24;80.32;;;31.75;;
21564;SDS011;10943;48.738;9.320;2022-12-18T06:36:51;88.20;;;38.90;;
21564;SDS011;10943;48.738;9.320;2022-12-18T06:39:19;63.05;;;28.85;;
21564;SDS011;10943;48.738;9.320;2022-12-18T06:41:46;62.25;;;29.27;;
21564;SDS011;10943;48.738;9.320;2022-12-18T06:44:14;55.95;;;28.88;;
21564;SDS011;10943;48.738;9.320;2022-12-18T06:46:41;60.10;;;29.10;;
21564;SDS011;10943;48.738;9.320;2022-12-18T06:49:09;55.25;;;27.45;;
21564;SDS011;10943;48.738;9.320;2022-12-18T06:51:36;54.65;;;26.98;;
21564;SDS011;10943;48.738;9.320;2022-12-18T06:54:04;55.30;;;26.65;;
21564;SDS011;10943;48.738;9.320;2022-12-18T06:56:33;59.28;;;27.90;;
21564;SDS011;10943;48.738;9.320;2022-12-18T06:59:00;65.82;;;30.40;;
21564;SDS011;10943;48.738;9.320;2022-12-18T07:01:28;62.47;;;29.95;;
21564;SDS011;10943;48.738;9.320;2022-12-18T07:04:02;64.70;;;28.95;;
21564;SDS011;10943;48.738;9.320;2022-12-18T07:06:35;58.65;;;28.50;;
21564;SDS011;10943;48.738;9.320;2022-12-18T07:09:03;59.15;;;28.42;;
21564;SDS011;10943;48.738;9.320;2022-12-18T07:11:32;66.95;;;30.67;;
21564;SDS011;10943;48.738;9.320;2022-12-18T07:14:00;64.50;;;30.95;;
21564;SDS011;10943;48.738;9.320;2022-12-18T07:16:28;63.58;;;29.55;;
21564;SDS011;10943;48.738;9.320;2022-12-18T07:18:55;64.45;;;30.05;;
21564;SDS011;10943;48.738;9.320;2022-12-18T07:21:24;60.97;;;28.10;;
21564;SDS011;10943;48.738;9.320;2022-12-18T07:23:51;63.75;;;29.92;;
21564;SDS011;10943;48.738;9.320;2022-12-18T07:26:20;68.57;;;30.38;;
21564;SDS011;10943;48.738;9.320;2022-12-18T07:28:48;65.35;;;30.80;;
21564;SDS011;10943;48.738;9.320;2022-12-18T07:31:18;60.42;;;28.70;;
21564;SDS011;10943;48.738;9.320;2022-12-18T07:33:49;61.08;;;29.88;;
21564;SDS011;10943;48.738;9.320;2022-12-18T07:36:19;66.00;;;30.75;;
21564;SDS011;10943;48.738;9.320;2022-12-18T07:38:47;63.55;;;30.35;;
21564;SDS011;10943;48.738;9.320;2022-12-18T07:41:18;65.60;;;29.85;;
21564;SDS011;10943;48.738;9.320;2022-12-18T07:43:45;58.85;;;29.50;;
21564;SDS011;10943;48.738;9.320;2022-12-18T07:46:13;60.55;;;28.00;;
21564;SDS011;10943;48.738;9.320;2022-12-18T07:48:43;57.67;;;28.75;;
21564;SDS011;10943;48.738;9.320;2022-12-18T07:51:15;61.10;;;29.60;;
21564;SDS011;10943;48.738;9.320;2022-12-18T07:53:44;56.67;;;27.88;;
21564;SDS011;10943;48.738;9.320;2022-12-18T07:56:18;63.30;;;30.23;;
21564;SDS011;10943;48.738;9.320;2022-12-18T07:58:57;63.88;;;30.00;;
21564;SDS011;10943;48.738;9.320;2022-12-18T08:01:26;59.75;;;29.55;;
21564;SDS011;10943;48.738;9.320;2022-12-18T08:03:54;68.43;;;30.75;;
21564;SDS011;10943;48.738;9.320;2022-12-18T08:06:22;69.38;;;31.23;;
21564;SDS011;10943;48.738;9.320;2022-12-18T08:08:53;67.75;;;32.13;;
21564;SDS011;10943;48.738;9.320;2022-12-18T08:11:24;61.97;;;31.25;;
21564;SDS011;10943;48.738;9.320;2022-12-18T08:13:54;67.57;;;31.63;;
21564;SDS011;10943;48.738;9.320;2022-12-18T08:16:26;65.07;;;30.80;;
21564;SDS011;10943;48.738;9.320;2022-12-18T08:18:53;61.65;;;30.85;;
21564;SDS011;10943;48.738;9.320;2022-12-18T08:21:25;67.03;;;32.85;;
21564;SDS011;10943;48.738;9.320;2022-12-18T08:23:57;65.60;;;31.80;;
21564;SDS011;10943;48.738;9.320;2022-12-18T08:26:29;72.50;;;33.28;;
21564;SDS011;10943;48.738;9.320;2022-12-18T08:28:58;69.03;;;31.55;;
21564;SDS011;10943;48.738;9.320;2022-12-18T08:31:27;63.83;;;31.02;;
21564;SDS011;10943;48.738;9.320;2022-12-18T08:34:22;63.10;;;31.05;;
21564;SDS011;10943;48.738;9.320;2022-12-18T08:36:50;66.40;;;31.83;;
21564;SDS011;10943;48.738;9.320;2022-12-18T08:39:17;65.18;;;31.27;;
21564;SDS011;10943;48.738;9.320;2022-12-18T08:41:45;67.05;;;32.40;;
21564;SDS011;10943;48.738;9.320;2022-12-18T08:44:36;63.55;;;31.88;;
21564;SDS011;10943;48.738;9.320;2022-12-18T08:47:06;69.28;;;31.58;;
21564;SDS011;10943;48.738;9.320;2022-12-18T08:49:35;69.45;;;31.58;;
21564;SDS011;10943;48.738;9.320;2022-12-18T08:52:03;65.07;;;33.10;;
21564;SDS011;10943;48.738;9.320;2022-12-18T08:54:30;69.88;;;33.00;;
21564;SDS011;10943;48.738;9.320;2022-12-18T08:57:00;65.45;;;31.52;;
21564;SDS011;10943;48.738;9.320;2022-12-18T08:59:28;67.43;;;30.60;;
21564;SDS011;10943;48.738;9.320;2022-12-18T09:01:56;62.95;;;31.00;;
21564;SDS011;10943;48.738;9.320;2022-12-18T09:04:24;61.08;;;31.17;;
21564;SDS011;10943;48.738;9.320;2022-12-18T09:06:54;63.05;;;31.33;;
21564;SDS011;10943;48.738;9.320;2022-12-18T09:09:22;56.58;;;29.67;;
21564;SDS011;10943;48.738;9.320;2022-12-18T09:11:49;60.83;;;29.60;;
21564;SDS011;10943;48.738;9.320;2022-12-18T09:14:17;59.90;;;29.73;;
21564;SDS011;10943;48.738;9.320;2022-12-18T09:16:48;57.60;;;28.58;;
21564;SDS011;10943;48.738;9.320;2022-12-18T09:19:16;61.22;;;28.08;;
21564;SDS011;10943;48.738;9.320;2022-12-18T09:21:44;56.75;;;28.58;;
21564;SDS011;10943;48.738;9.320;2022-12-18T09:24:14;61.38;;;28.15;;
21564;SDS011;10943;48.738;9.320;2022-12-18T09:26:52;61.33;;;29.15;;
21564;SDS011;10943;48.738;9.320;2022-12-18T09:29:24;63.72;;;28.77;;
21564;SDS011;10943;48.738;9.320;2022-12-18T09:32:14;57.30;;;26.85;;
21564;SDS011;10943;48.738;9.320;2022-12-18T09:34:48;61.17;;;28.05;;
21564;SDS011;10943;48.738;9.320;2022-12-18T09:37:15;56.58;;;27.45;;
21564;SDS011;10943;48.738;9.320;2022-12-18T09:39:43;50.67;;;26.40;;
21564;SDS011;10943;48.738;9.320;2022-12-18T09:42:20;58.35;;;27.85;;
21564;SDS011;10943;48.738;9.320;2022-12-18T09:44:50;49.30;;;27.48;;
21564;SDS011;10943;48.738;9.320;2022-12-18T09:47:36;51.70;;;27.95;;
21564;SDS011;10943;48.738;9.320;2022-12-18T09:50:41;51.70;;;26.33;;
21564;SDS011;10943;48.738;9.320;2022-12-18T09:53:12;44.83;;;27.55;;
21564;SDS011;10943;48.738;9.320;2022-12-18T09:55:49;44.65;;;27.40;;
21564;SDS011;10943;48.738;9.320;2022-12-18T09:58:31;45.25;;;29.75;;
21564;SDS011;10943;48.738;9.320;2022-12-18T10:01:14;44.05;;;26.73;;
21564;SDS011;10943;48.738;9.320;2022-12-18T10:03:50;43.92;;;27.92;;
21564;SDS011;10943;48.738;9.320;2022-12-18T10:17:45;46.08;;;29.02;;
21564;SDS011;10943;48.738;9.320;2022-12-18T10:20:53;41.58;;;26.33;;
21564;SDS011;10943;48.738;9.320;2022-12-18T10:26:44;42.38;;;27.00;;
21564;SDS011;10943;48.738;9.320;2022-12-18T10:29:15;46.75;;;28.63;;
21564;SDS011;10943;48.738;9.320;2022-12-18T10:31:43;42.25;;;28.20;;
21564;SDS011;10943;48.738;9.320;2022-12-18T10:34:11;42.88;;;28.60;;
21564;SDS011;10943;48.738;9.320;2022-12-18T10:36:40;44.63;;;29.15;;
21564;SDS011;10943;48.738;9.320;2022-12-18T10:39:20;42.72;;;28.65;;
21564;SDS011;10943;48.738;9.320;2022-12-18T10:41:59;46.00;;;28.38;;
21564;SDS011;10943;48.738;9.320;2022-12-18T10:44:43;44.40;;;28.58;;
21564;SDS011;10943;48.738;9.320;2022-12-18T10:47:15;43.50;;;28.58;;
21564;SDS011;10943;48.738;9.320;2022-12-18T10:49:47;47.50;;;28.40;;
21564;SDS011;10943;48.738;9.320;2022-12-18T10:52:23;47.45;;;29.55;;
21564;SDS011;10943;48.738;9.320;2022-12-18T10:54:59;47.28;;;29.45;;
21564;SDS011;10943;48.738;9.320;2022-12-18T11:00:42;43.88;;;27.80;;
21564;SDS011;10943;48.738;9.320;2022-12-18T11:03:07;47.67;;;27.83;;
21564;SDS011;10943;48.738;9.320;2022-12-18T11:11:41;48.22;;;28.85;;
21564;SDS011;10943;48.738;9.320;2022-12-18T11:14:34;49.45;;;29.23;;
21564;SDS011;10943;48.738;9.320;2022-12-18T11:20:03;54.85;;;30.65;;
21564;SDS011;10943;48.738;9.320;2022-12-18T11:23:04;43.97;;;26.77;;
21564;SDS011;10943;48.738;9.320;2022-12-18T11:25:39;54.33;;;29.60;;
21564;SDS011;10943;48.738;9.320;2022-12-18T11:33:54;45.30;;;29.35;;
21564;SDS011;10943;48.738;9.320;2022-12-18T11:36:52;49.63;;;28.95;;
21564;SDS011;10943;48.738;9.320;2022-12-18T11:39:30;46.65;;;28.40;;
21564;SDS011;10943;48.738;9.320;2022-12-18T11:42:12;45.83;;;28.98;;
21564;SDS011;10943;48.738;9.320;2022-12-18T11:45:20;49.35;;;30.10;;
21564;SDS011;10943;48.738;9.320;2022-12-18T11:48:00;54.17;;;32.78;;
21564;SDS011;10943;48.738;9.320;2022-12-18T11:51:19;48.92;;;29.73;;
21564;SDS011;10943;48.738;9.320;2022-12-18T11:54:09;48.53;;;30.15;;
21564;SDS011;10943;48.738;9.320;2022-12-18T11:57:04;49.10;;;30.27;;
21564;SDS011;10943;48.738;9.320;2022-12-18T12:00:14;49.58;;;30.77;;
21564;SDS011;10943;48.738;9.320;2022-12-18T12:03:01;53.35;;;30.67;;
21564;SDS011;10943;48.738;9.320;2022-12-18T12:11:49;46.78;;;29.05;;
21564;SDS011;10943;48.738;9.320;2022-12-18T12:21:53;47.83;;;28.48;;
21564;SDS011;10943;48.738;9.320;2022-12-18T12:39:06;52.65;;;29.67;;
21564;SDS011;10943;48.738;9.320;2022-12-18T12:41:45;50.22;;;29.77;;
21564;SDS011;10943;48.738;9.320;2022-12-18T12:44:33;49.20;;;28.52;;
21564;SDS011;10943;48.738;9.320;2022-12-18T12:47:30;51.78;;;29.63;;
21564;SDS011;10943;48.738;9.320;2022-12-18T12:50:11;52.90;;;29.45;;
21564;SDS011;10943;48.738;9.320;2022-12-18T12:52:46;48.88;;;29.65;;
21564;SDS011;10943;48.738;9.320;2022-12-18T12:55:49;51.97;;;31.05;;
21564;SDS011;10943;48.738;9.320;2022-12-18T12:58:26;49.58;;;28.23;;
21564;SDS011;10943;48.738;9.320;2022-12-18T13:01:22;51.45;;;29.75;;
21564;SDS011;10943;48.738;9.320;2022-12-18T13:04:34;49.55;;;29.10;;
21564;SDS011;10943;48.738;9.320;2022-12-18T13:10:38;50.95;;;29.10;;
21564;SDS011;10943;48.738;9.320;2022-12-18T13:13:10;52.38;;;28.90;;
21564;SDS011;10943;48.738;9.320;2022-12-18T13:16:03;46.47;;;29.02;;
21564;SDS011;10943;48.738;9.320;2022-12-18T13:18:34;54.20;;;29.63;;
21564;SDS011;10943;48.738;9.320;2022-12-18T13:21:04;50.35;;;29.10;;
21564;SDS011;10943;48.738;9.320;2022-12-18T13:23:48;55.50;;;30.58;;
21564;SDS011;10943;48.738;9.320;2022-12-18T13:36:55;51.40;;;28.80;;
21564;SDS011;10943;48.738;9.320;2022-12-18T13:39:57;56.75;;;30.77;;
21564;SDS011;10943;48.738;9.320;2022-12-18T13:42:35;57.72;;;31.13;;
21564;SDS011;10943;48.738;9.320;2022-12-18T13:45:36;49.92;;;28.33;;
21564;SDS011;10943;48.738;9.320;2022-12-18T13:48:17;50.10;;;28.23;;
21564;SDS011;10943;48.738;9.320;2022-12-18T13:50:52;53.45;;;29.15;;
21564;SDS011;10943;48.738;9.320;2022-12-18T13:56:27;51.83;;;27.73;;
21564;SDS011;10943;48.738;9.320;2022-12-18T13:59:03;49.80;;;28.10;;
21564;SDS011;10943;48.738;9.320;2022-12-18T14:01:54;47.33;;;27.63;;
21564;SDS011;10943;48.738;9.320;2022-12-18T14:04:31;52.13;;;28.25;;
21564;SDS011;10943;48.738;9.320;2022-12-18T14:07:03;47.92;;;28.17;;
21564;SDS011;10943;48.738;9.320;2022-12-18T14:12:49;48.75;;;27.92;;
21564;SDS011;10943;48.738;9.320;2022-12-18T14:15:33;54.83;;;28.45;;
21564;SDS011;10943;48.738;9.320;2022-12-18T14:21:21;52.33;;;28.20;;
21564;SDS011;10943;48.738;9.320;2022-12-18T14:24:03;55.72;;;28.65;;
21564;SDS011;10943;48.738;9.320;2022-12-18T14:26:47;55.03;;;28.25;;
21564;SDS011;10943;48.738;9.320;2022-12-18T14:29:19;51.03;;;28.33;;
21564;SDS011;10943;48.738;9.320;2022-12-18T14:32:17;53.25;;;28.10;;
21564;SDS011;10943;48.738;9.320;2022-12-18T14:34:51;50.53;;;28.52;;
21564;SDS011;10943;48.738;9.320;2022-12-18T14:37:22;54.20;;;26.95;;
21564;SDS011;10943;48.738;9.320;2022-12-18T14:42:37;48.83;;;26.48;;
21564;SDS011;10943;48.738;9.320;2022-12-18T14:50:41;52.75;;;26.52;;
21564;SDS011;10943;48.738;9.320;2022-12-18T14:53:23;50.95;;;26.02;;
21564;SDS011;10943;48.738;9.320;2022-12-18T14:56:03;48.92;;;25.67;;
21564;SDS011;10943;48.738;9.320;2022-12-18T14:59:22;55.47;;;26.52;;
21564;SDS011;10943;48.738;9.320;2022-12-18T15:02:16;51.42;;;26.00;;
21564;SDS011;10943;48.738;9.320;2022-12-18T15:05:03;54.92;;;27.17;;
21564;SDS011;10943;48.738;9.320;2022-12-18T15:07:44;54.25;;;26.75;;
21564;SDS011;10943;48.738;9.320;2022-12-18T15:23:31;52.70;;;27.35;;
21564;SDS011;10943;48.738;9.320;2022-12-18T15:26:14;57.13;;;28.23;;
21564;SDS011;10943;48.738;9.320;2022-12-18T15:28:49;55.78;;;25.83;;
21564;SDS011;10943;48.738;9.320;2022-12-18T15:31:33;55.25;;;27.58;;
21564;SDS011;10943;48.738;9.320;2022-12-18T15:36:34;56.45;;;26.85;;
21564;SDS011;10943;48.738;9.320;2022-12-18T15:39:03;58.40;;;28.85;;
21564;SDS011;10943;48.738;9.320;2022-12-18T15:41:33;61.30;;;29.42;;
21564;SDS011;10943;48.738;9.320;2022-12-18T15:44:14;59.95;;;28.17;;
21564;SDS011;10943;48.738;9.320;2022-12-18T15:46:50;61.30;;;29.75;;
21564;SDS011;10943;48.738;9.320;2022-12-18T15:49:18;58.42;;;29.52;;
21564;SDS011;10943;48.738;9.320;2022-12-18T15:51:47;56.72;;;28.63;;
21564;SDS011;10943;48.738;9.320;2022-12-18T15:54:22;64.35;;;30.33;;
21564;SDS011;10943;48.738;9.320;2022-12-18T15:57:10;59.85;;;30.38;;
21564;SDS011;10943;48.738;9.320;2022-12-18T15:59:52;59.08;;;29.67;;
21564;SDS011;10943;48.738;9.320;2022-12-18T16:02:25;56.40;;;29.23;;
21564;SDS011;10943;48.738;9.320;2022-12-18T16:04:55;58.38;;;29.65;;
21564;SDS011;10943;48.738;9.320;2022-12-18T16:07:23;57.28;;;28.42;;
21564;SDS011;10943;48.738;9.320;2022-12-18T16:09:55;58.78;;;30.35;;
21564;SDS011;10943;48.738;9.320;2022-12-18T16:12:25;59.92;;;28.73;;
21564;SDS011;10943;48.738;9.320;2022-12-18T16:14:53;55.72;;;28.73;;
21564;SDS011;10943;48.738;9.320;2022-12-18T16:17:20;58.90;;;28.95;;
21564;SDS011;10943;48.738;9.320;2022-12-18T16:19:49;57.65;;;29.75;;
21564;SDS011;10943;48.738;9.320;2022-12-18T16:22:28;64.68;;;32.28;;
21564;SDS011;10943;48.738;9.320;2022-12-18T16:24:57;68.35;;;34.95;;
21564;SDS011;10943;48.738;9.320;2022-12-18T16:27:25;67.07;;;33.50;;
21564;SDS011;10943;48.738;9.320;2022-12-18T16:29:53;63.28;;;31.88;;
21564;SDS011;10943;48.738;9.320;2022-12-18T16:32:21;63.50;;;31.52;;
21564;SDS011;10943;48.738;9.320;2022-12-18T16:34:50;60.85;;;29.73;;
21564;SDS011;10943;48.738;9.320;2022-12-18T16:37:18;58.67;;;30.73;;
21564;SDS011;10943;48.738;9.320;2022-12-18T16:39:45;60.63;;;30.35;;
21564;SDS011;10943;48.738;9.320;2022-12-18T16:42:15;62.85;;;32.00;;
21564;SDS011;10943;48.738;9.320;2022-12-18T16:44:47;64.85;;;29.85;;
21564;SDS011;10943;48.738;9.320;2022-12-18T16:47:16;67.15;;;30.13;;
21564;SDS011;10943;48.738;9.320;2022-12-18T16:49:45;58.03;;;28.05;;
21564;SDS011;10943;48.738;9.320;2022-12-18T16:52:14;51.63;;;28.13;;
21564;SDS011;10943;48.738;9.320;2022-12-18T16:54:43;55.38;;;27.63;;
21564;SDS011;10943;48.738;9.320;2022-12-18T16:57:13;54.92;;;28.35;;
21564;SDS011;10943;48.738;9.320;2022-12-18T16:59:46;53.95;;;26.02;;
21564;SDS011;10943;48.738;9.320;2022-12-18T17:02:18;55.42;;;26.83;;
21564;SDS011;10943;48.738;9.320;2022-12-18T17:04:57;58.67;;;25.83;;
21564;SDS011;10943;48.738;9.320;2022-12-18T17:07:25;56.10;;;27.88;;
21564;SDS011;10943;48.738;9.320;2022-12-18T17:09:54;54.85;;;25.75;;
21564;SDS011;10943;48.738;9.320;2022-12-18T17:12:22;59.17;;;27.48;;
21564;SDS011;10943;48.738;9.320;2022-12-18T17:14:50;52.58;;;27.02;;
21564;SDS011;10943;48.738;9.320;2022-12-18T17:17:18;55.67;;;27.23;;
21564;SDS011;10943;48.738;9.320;2022-12-18T17:19:48;55.17;;;27.27;;
21564;SDS011;10943;48.738;9.320;2022-12-18T17:22:18;50.03;;;25.77;;
21564;SDS011;10943;48.738;9.320;2022-12-18T17:24:49;53.78;;;26.73;;
21564;SDS011;10943;48.738;9.320;2022-12-18T17:27:16;58.13;;;27.83;;
21564;SDS011;10943;48.738;9.320;2022-12-18T17:29:44;49.55;;;24.85;;
21564;SDS011;10943;48.738;9.320;2022-12-18T17:32:15;48.45;;;25.27;;